Time;durP1;ratioP1;P1;durP2;ratioP2;P2;SDS_P1;SDS_P2;PMS_P1;PMS_P2;Temp;Humidity;BMP_temperature;BMP_pressure;BME280_temperature;BME280_humidity;BME280_pressure;Samples;Min_cycle;Max_cycle;Signal;HPM_P1;HPM_P2
2021/10/16 00:00:53;;;;;;;19.92;7.60;;;;;;;9.25;83.36;102240.91;5053001;28;20052;-69
2021/10/16 00:03:18;;;;;;;16.83;7.20;;;;;;;9.18;83.24;102242.44;5053312;28;20021;-68
2021/10/16 00:05:44;;;;;;;15.70;7.07;;;;;;;9.15;84.19;102241.91;5052722;28;20021;-68
2021/10/16 00:08:09;;;;;;;15.07;7.13;;;;;;;9.14;83.52;102251.41;5051229;28;20031;-69
2021/10/16 00:10:35;;;;;;;19.30;7.22;;;;;;;9.16;83.91;102243.53;5052587;28;20539;-69
2021/10/16 00:13:00;;;;;;;16.90;7.07;;;;;;;9.21;83.70;102249.09;5051604;28;20033;-68
2021/10/16 00:15:26;;;;;;;16.35;6.47;;;;;;;9.18;83.89;102247.59;5052821;28;20041;-69
2021/10/16 00:17:51;;;;;;;24.65;6.53;;;;;;;9.24;84.05;102241.88;5052834;28;20476;-68
2021/10/16 00:20:17;;;;;;;21.20;6.45;;;;;;;9.29;83.63;102243.19;5052836;28;20025;-69
2021/10/16 00:22:42;;;;;;;17.23;6.63;;;;;;;9.34;84.11;102252.13;5052746;28;20025;-68
2021/10/16 00:25:08;;;;;;;17.15;5.90;;;;;;;9.37;83.34;102245.88;5052806;28;20045;-70
2021/10/16 00:27:33;;;;;;;19.20;6.40;;;;;;;9.36;83.43;102252.00;5053311;28;20017;-69
2021/10/16 00:29:58;;;;;;;18.15;5.82;;;;;;;9.24;84.30;102247.03;5054953;28;20025;-70
2021/10/16 00:32:24;;;;;;;16.73;5.85;;;;;;;9.17;84.58;102245.16;5056477;28;20029;-70
2021/10/16 00:34:49;;;;;;;19.35;5.80;;;;;;;9.22;83.84;102242.97;5056250;28;20017;-71
2021/10/16 00:37:14;;;;;;;14.93;5.50;;;;;;;9.34;83.83;102246.97;5055906;28;20112;-69
2021/10/16 00:39:39;;;;;;;14.88;5.15;;;;;;;9.38;83.77;102243.19;5055883;28;20087;-69
2021/10/16 00:42:05;;;;;;;17.13;5.45;;;;;;;9.40;83.48;102235.28;5055790;28;20056;-69
2021/10/16 00:44:31;;;;;;;19.73;6.72;;;;;;;9.43;83.24;102238.38;5055780;28;20037;-67
2021/10/16 00:46:58;;;;;;;14.75;6.75;;;;;;;9.52;83.28;102235.88;5055876;28;20025;-69
2021/10/16 00:49:25;;;;;;;15.73;6.47;;;;;;;9.55;84.10;102236.44;5055821;28;20017;-67
2021/10/16 00:51:51;;;;;;;13.27;6.55;;;;;;;9.51;84.28;102234.28;5054419;28;20036;-70
2021/10/16 00:54:16;;;;;;;15.90;6.50;;;;;;;9.41;84.47;102231.75;5055550;28;20064;-70
2021/10/16 00:56:43;;;;;;;17.38;5.93;;;;;;;9.44;84.43;102239.22;5055680;28;20036;-68
2021/10/16 00:59:10;;;;;;;13.88;5.28;;;;;;;9.40;83.32;102225.75;5055667;28;20476;-68
2021/10/16 01:01:37;;;;;;;19.23;6.05;;;;;;;9.45;83.54;102226.16;5055591;28;20133;-67
2021/10/16 01:04:03;;;;;;;20.00;6.10;;;;;;;9.52;83.30;102230.72;5055444;28;20060;-67
2021/10/16 01:06:29;;;;;;;15.45;6.20;;;;;;;9.54;84.32;102234.00;5054198;28;20136;-67
2021/10/16 01:08:56;;;;;;;11.15;5.40;;;;;;;9.54;84.17;102239.97;5055401;28;20085;-67
2021/10/16 01:11:35;;;;;;;14.13;5.78;;;;;;;9.50;84.18;102241.22;5055354;28;20025;-69
2021/10/16 01:14:09;;;;;;;19.35;6.40;;;;;;;9.54;83.93;102231.41;5055371;28;20021;-69
2021/10/16 01:16:36;;;;;;;17.35;6.55;;;;;;;9.49;83.58;102231.81;5055286;28;20072;-69
2021/10/16 01:19:05;;;;;;;16.05;5.93;;;;;;;9.52;84.38;102233.31;5055208;28;20480;-68
2021/10/16 01:21:31;;;;;;;17.23;6.30;;;;;;;9.53;83.88;102224.63;5055150;28;20163;-68
2021/10/16 01:23:58;;;;;;;16.30;5.80;;;;;;;9.57;84.88;102228.53;5055088;28;20037;-69
2021/10/16 01:26:27;;;;;;;18.40;6.28;;;;;;;9.63;84.45;102222.78;5055068;28;20059;-68
2021/10/16 01:28:53;;;;;;;12.70;5.60;;;;;;;9.62;85.21;102223.75;5055011;28;20032;-68
2021/10/16 01:31:22;;;;;;;17.63;5.90;;;;;;;9.62;84.82;102214.25;5055050;28;20480;-68
2021/10/16 01:33:47;;;;;;;14.45;5.38;;;;;;;9.51;83.02;102187.81;5055029;28;20443;-68
2021/10/16 01:36:12;;;;;;;16.00;5.82;;;;;;;9.76;81.81;102200.03;5054838;28;20049;-68
2021/10/16 01:38:38;;;;;;;16.80;4.75;;;;;;;9.79;81.47;102204.09;5054880;28;20411;-68
2021/10/16 01:41:03;;;;;;;14.55;5.35;;;;;;;9.83;82.41;102216.53;5054441;28;20056;-68
2021/10/16 01:43:29;;;;;;;13.13;4.80;;;;;;;9.86;82.67;102220.59;5054769;28;20049;-69
2021/10/16 01:45:54;;;;;;;15.18;5.30;;;;;;;9.79;82.33;102210.06;5054692;28;20026;-68
2021/10/16 01:48:21;;;;;;;14.07;4.78;;;;;;;9.88;83.52;102206.59;5054677;28;20031;-68
2021/10/16 01:50:47;;;;;;;14.07;4.68;;;;;;;9.86;83.94;102202.53;5054634;28;20123;-68
2021/10/16 01:53:12;;;;;;;14.50;4.55;;;;;;;9.83;83.39;102200.25;5054422;28;20049;-68
2021/10/16 01:55:38;;;;;;;15.98;4.93;;;;;;;9.87;83.42;102204.97;5054478;28;20028;-68
2021/10/16 01:58:08;;;;;;;23.17;4.88;;;;;;;9.83;82.67;102198.47;5054498;28;20025;-69
2021/10/16 02:00:34;;;;;;;17.83;4.90;;;;;;;9.91;81.45;102206.28;5053196;28;20430;-68
2021/10/16 02:02:59;;;;;;;14.27;4.57;;;;;;;9.98;81.89;102193.59;5053159;28;20078;-68
2021/10/16 02:05:25;;;;;;;14.77;4.82;;;;;;;9.98;83.08;102206.50;5052990;28;20365;-68
2021/10/16 02:07:50;;;;;;;16.50;4.40;;;;;;;9.99;81.43;102199.59;5054289;28;20035;-68
2021/10/16 02:10:16;;;;;;;14.52;4.70;;;;;;;10.01;80.21;102206.25;5054325;28;20029;-68
2021/10/16 02:12:41;;;;;;;15.48;4.20;;;;;;;10.10;81.44;102207.94;5054189;28;20029;-68
2021/10/16 02:15:07;;;;;;;14.82;4.13;;;;;;;10.05;81.70;102209.31;5053847;28;20021;-68
2021/10/16 02:17:32;;;;;;;22.48;4.60;;;;;;;10.05;81.42;102204.97;5054485;28;20105;-68
2021/10/16 02:19:57;;;;;;;15.68;4.38;;;;;;;10.01;80.26;102202.81;5053199;28;20028;-68
2021/10/16 02:22:23;;;;;;;20.42;5.05;;;;;;;10.04;80.34;102194.78;5054330;28;20473;-68
2021/10/16 02:24:48;;;;;;;17.77;4.45;;;;;;;10.08;81.10;102199.50;5053004;28;20033;-68
2021/10/16 02:27:14;;;;;;;18.13;4.47;;;;;;;10.03;81.94;102209.47;5054668;28;20032;-68
2021/10/16 02:29:39;;;;;;;16.70;4.30;;;;;;;9.98;81.49;102195.38;5054925;28;20025;-68
2021/10/16 02:32:05;;;;;;;15.98;4.97;;;;;;;10.01;81.96;102205.41;5054152;28;20053;-68
2021/10/16 02:34:30;;;;;;;13.95;4.28;;;;;;;9.92;81.55;102189.03;5054239;28;20032;-69
2021/10/16 02:36:55;;;;;;;12.68;4.50;;;;;;;9.94;82.38;102198.25;5054123;28;20028;-69
2021/10/16 02:39:21;;;;;;;17.20;5.10;;;;;;;9.92;81.76;102192.41;5052911;28;20021;-69
2021/10/16 02:41:46;;;;;;;15.98;4.40;;;;;;;9.98;81.61;102193.59;5054146;28;20028;-69
2021/10/16 02:44:11;;;;;;;21.20;5.00;;;;;;;9.98;81.14;102197.94;5053948;28;20467;-68
2021/10/16 02:46:37;;;;;;;18.98;4.75;;;;;;;10.04;79.63;102195.59;5054243;28;20051;-69
2021/10/16 02:49:02;;;;;;;21.75;5.00;;;;;;;10.05;79.96;102192.06;5052630;28;20028;-68
2021/10/16 02:51:27;;;;;;;17.27;4.57;;;;;;;9.97;81.70;102196.34;5051981;28;20456;-68
2021/10/16 02:53:52;;;;;;;16.10;4.40;;;;;;;9.94;82.08;102197.44;5053573;28;20053;-68
2021/10/16 02:56:18;;;;;;;16.85;4.65;;;;;;;9.91;82.40;102197.75;5054047;28;20029;-68
2021/10/16 02:58:43;;;;;;;16.00;4.57;;;;;;;9.95;81.63;102206.81;5053775;28;20468;-68
2021/10/16 03:01:08;;;;;;;13.25;4.72;;;;;;;10.00;81.55;102202.00;5053712;28;20048;-70
2021/10/16 03:03:33;;;;;;;15.88;4.90;;;;;;;10.00;79.49;102209.75;5053999;28;20074;-68
2021/10/16 03:05:59;;;;;;;17.60;5.22;;;;;;;10.04;79.58;102198.19;5052315;28;20021;-68
2021/10/16 03:08:24;;;;;;;17.48;4.80;;;;;;;10.04;77.38;102205.09;5052331;28;20032;-68
2021/10/16 03:10:49;;;;;;;19.90;4.60;;;;;;;10.08;76.95;102209.84;5053160;28;20399;-69
2021/10/16 03:13:15;;;;;;;14.20;4.13;;;;;;;10.11;77.32;102206.94;5053833;28;20104;-68
2021/10/16 03:15:40;;;;;;;17.25;4.82;;;;;;;10.14;76.74;102203.25;5052992;28;20472;-69
2021/10/16 03:18:05;;;;;;;19.75;4.53;;;;;;;10.15;78.54;102210.84;5052217;28;20052;-68
2021/10/16 03:20:30;;;;;;;13.18;4.43;;;;;;;10.05;78.69;102207.56;5053464;28;20036;-68
2021/10/16 03:22:56;;;;;;;16.23;4.60;;;;;;;10.04;80.65;102212.84;5053484;28;20024;-68
2021/10/16 03:25:21;;;;;;;13.93;4.20;;;;;;;10.00;80.89;102207.19;5053357;28;20040;-69
2021/10/16 03:27:46;;;;;;;14.07;4.47;;;;;;;9.95;81.86;102204.22;5053341;28;20028;-68
2021/10/16 03:30:11;;;;;;;12.77;4.07;;;;;;;9.91;81.12;102197.75;5053345;28;20021;-68
2021/10/16 03:32:37;;;;;;;17.60;4.63;;;;;;;9.90;79.94;102201.28;5052026;28;20154;-68
2021/10/16 03:35:02;;;;;;;22.95;5.13;;;;;;;9.97;78.95;102198.91;5053548;28;20036;-68
2021/10/16 03:37:28;;;;;;;18.30;5.68;;;;;;;10.04;78.63;102199.94;5053314;28;20031;-68
2021/10/16 03:39:53;;;;;;;18.40;4.53;;;;;;;10.12;77.97;102197.44;5053232;28;20020;-68
2021/10/16 03:42:18;;;;;;;18.55;4.30;;;;;;;10.12;79.72;102189.69;5053247;28;20021;-68
2021/10/16 03:44:43;;;;;;;17.30;4.00;;;;;;;9.91;78.86;102195.16;5053368;28;20025;-68
2021/10/16 03:47:09;;;;;;;15.10;3.78;;;;;;;10.06;77.50;102188.50;5053778;28;20026;-69
2021/10/16 03:49:34;;;;;;;15.07;3.70;;;;;;;10.09;77.04;102182.22;5053707;28;20056;-68
2021/10/16 03:51:59;;;;;;;20.02;3.60;;;;;;;10.03;77.94;102183.63;5053157;28;20025;-68
2021/10/16 03:54:24;;;;;;;18.52;3.67;;;;;;;10.04;78.45;102190.44;5052950;28;20041;-68
2021/10/16 03:56:50;;;;;;;16.27;3.63;;;;;;;10.03;78.23;102188.81;5053159;28;20549;-68
2021/10/16 03:59:15;;;;;;;14.13;3.80;;;;;;;9.99;80.73;102191.84;5053110;28;20207;-68
2021/10/16 04:01:40;;;;;;;17.85;3.80;;;;;;;9.86;80.24;102193.00;5051793;28;20028;-68
2021/10/16 04:04:05;;;;;;;11.80;4.03;;;;;;;9.86;79.85;102190.44;5054102;28;20024;-68
2021/10/16 04:06:31;;;;;;;17.75;3.80;;;;;;;9.76;80.13;102188.91;5056978;28;20021;-69
2021/10/16 04:08:56;;;;;;;19.92;4.10;;;;;;;9.82;80.17;102191.69;5056960;28;20427;-68
2021/10/16 04:11:21;;;;;;;15.73;3.97;;;;;;;9.85;80.76;102190.59;5057126;28;20051;-68
2021/10/16 04:13:46;;;;;;;15.65;4.20;;;;;;;9.84;80.49;102194.94;5057103;28;20024;-69
2021/10/16 04:16:12;;;;;;;16.55;4.07;;;;;;;9.86;81.84;102195.59;5056814;28;20021;-69
2021/10/16 04:18:37;;;;;;;16.88;3.80;;;;;;;9.77;82.58;102206.81;5056789;28;20029;-68
2021/10/16 04:21:02;;;;;;;16.90;4.13;;;;;;;9.72;82.24;102198.69;5055524;28;20029;-68
2021/10/16 04:23:28;;;;;;;17.40;4.07;;;;;;;9.80;82.16;102188.44;5056741;28;20017;-69
2021/10/16 04:25:53;;;;;;;12.18;4.20;;;;;;;9.97;79.64;102186.81;5056578;28;20024;-68
2021/10/16 04:28:18;;;;;;;15.07;4.03;;;;;;;10.02;78.87;102182.03;5056644;28;20097;-68
2021/10/16 04:30:43;;;;;;;16.55;3.85;;;;;;;10.03;78.71;102183.63;5056644;28;20115;-68
2021/10/16 04:33:09;;;;;;;11.75;3.88;;;;;;;10.03;78.66;102190.56;5056528;28;20036;-68
2021/10/16 04:35:35;;;;;;;12.68;3.97;;;;;;;9.94;81.05;102192.28;5056389;28;20024;-68
2021/10/16 04:38:00;;;;;;;16.75;4.05;;;;;;;9.77;82.69;102198.25;5056400;28;20021;-68
2021/10/16 04:40:26;;;;;;;15.43;4.03;;;;;;;9.74;82.14;102208.88;5056335;28;20028;-68
2021/10/16 04:42:53;;;;;;;13.82;3.78;;;;;;;9.70;81.21;102204.00;5056295;28;20035;-67
2021/10/16 04:45:20;;;;;;;14.13;3.13;;;;;;;9.74;80.89;102206.28;5056808;28;20044;-68
2021/10/16 04:47:45;;;;;;;12.70;3.55;;;;;;;9.81;81.24;102197.81;5056218;28;20551;-68
2021/10/16 04:50:11;;;;;;;11.20;3.60;;;;;;;9.64;81.81;102168.47;5056182;28;20052;-68
2021/10/16 04:52:37;;;;;;;10.95;3.65;;;;;;;9.74;82.13;102199.34;5055996;28;20029;-68
2021/10/16 04:55:04;;;;;;;13.98;3.50;;;;;;;9.69;83.30;102202.34;5056130;28;20024;-69
2021/10/16 04:57:29;;;;;;;14.95;3.90;;;;;;;9.76;82.83;102204.38;5056009;28;20028;-68
2021/10/16 04:59:55;;;;;;;11.80;3.80;;;;;;;9.75;83.09;102206.13;5056832;28;20041;-69
2021/10/16 05:02:20;;;;;;;14.18;3.78;;;;;;;9.66;83.19;102197.50;5055984;28;20047;-68
2021/10/16 05:04:45;;;;;;;16.80;3.90;;;;;;;9.73;82.02;102192.56;5055762;28;20100;-69
2021/10/16 05:07:10;;;;;;;16.70;4.10;;;;;;;9.74;82.93;102201.13;5054621;28;20032;-68
2021/10/16 05:09:36;;;;;;;14.15;3.50;;;;;;;9.73;83.07;102199.50;5055799;28;20040;-68
2021/10/16 05:12:01;;;;;;;11.00;3.60;;;;;;;9.76;82.90;102199.22;5056294;28;20033;-68
2021/10/16 05:14:26;;;;;;;9.85;3.50;;;;;;;9.78;83.12;102198.13;5055174;28;20028;-68
2021/10/16 05:16:52;;;;;;;14.13;4.90;;;;;;;9.70;81.46;102196.25;5055519;28;20056;-68
2021/10/16 05:19:17;;;;;;;18.35;5.15;;;;;;;9.77;81.47;102195.66;5055513;28;20131;-68
2021/10/16 05:21:42;;;;;;;19.50;5.60;;;;;;;9.75;83.09;102198.38;5055570;28;20021;-68
2021/10/16 05:24:07;;;;;;;15.45;4.18;;;;;;;9.77;82.93;102199.06;5055452;28;20029;-68
2021/10/16 05:26:33;;;;;;;14.45;4.85;;;;;;;9.74;83.06;102203.72;5055478;28;20166;-68
2021/10/16 05:28:59;;;;;;;13.55;4.28;;;;;;;9.71;83.07;102197.06;5055949;28;20025;-68
2021/10/16 05:31:24;;;;;;;13.10;4.10;;;;;;;9.77;82.93;102201.63;5055403;28;20044;-68
2021/10/16 05:33:50;;;;;;;19.80;4.47;;;;;;;9.70;81.61;102200.63;5055528;28;20056;-68
2021/10/16 05:36:15;;;;;;;21.25;4.80;;;;;;;9.79;80.63;102197.16;5055551;28;20021;-68
2021/10/16 05:38:40;;;;;;;13.40;4.03;;;;;;;9.93;80.47;102196.63;5055479;28;20025;-68
2021/10/16 05:41:06;;;;;;;19.85;4.28;;;;;;;10.01;79.97;102192.50;5055279;28;20024;-68
2021/10/16 05:43:31;;;;;;;20.15;4.47;;;;;;;9.99;80.09;102197.00;5055184;28;20426;-68
2021/10/16 05:45:56;;;;;;;19.30;4.18;;;;;;;9.90;79.97;102196.94;5055093;28;20491;-68
2021/10/16 05:48:22;;;;;;;12.57;3.88;;;;;;;9.90;80.29;102193.53;5053815;28;20029;-68
2021/10/16 05:50:47;;;;;;;15.70;4.20;;;;;;;9.91;80.47;102192.56;5055578;28;20116;-68
2021/10/16 05:53:12;;;;;;;11.02;3.50;;;;;;;9.94;79.98;102194.88;5054867;28;20484;-68
2021/10/16 05:55:37;;;;;;;17.02;3.92;;;;;;;9.90;79.86;102194.34;5055183;28;20094;-68
2021/10/16 05:58:03;;;;;;;16.92;3.80;;;;;;;9.86;80.18;102193.00;5054916;28;20032;-68
2021/10/16 06:00:28;;;;;;;15.02;3.75;;;;;;;9.87;79.99;102194.66;5054804;28;20102;-68
2021/10/16 06:02:53;;;;;;;26.08;4.07;;;;;;;9.86;80.43;102189.63;5054827;28;20025;-68
2021/10/16 06:05:19;;;;;;;14.13;3.85;;;;;;;9.79;80.23;102189.41;5054718;28;20032;-68
2021/10/16 06:07:44;;;;;;;12.93;3.75;;;;;;;9.81;79.37;102189.25;5054663;28;20128;-68
2021/10/16 06:10:10;;;;;;;16.15;3.75;;;;;;;9.74;79.43;102195.97;5054997;28;20027;-68
2021/10/16 06:12:35;;;;;;;16.02;4.00;;;;;;;9.80;79.44;102192.78;5053414;28;20083;-68
2021/10/16 06:15:00;;;;;;;14.77;3.85;;;;;;;9.83;80.34;102189.91;5053405;28;20028;-69
2021/10/16 06:17:26;;;;;;;12.45;3.58;;;;;;;9.83;79.37;102195.09;5053233;28;20025;-67
2021/10/16 06:19:52;;;;;;;15.93;3.85;;;;;;;9.84;78.97;102191.53;5055097;28;20029;-68
2021/10/16 06:22:17;;;;;;;22.38;4.60;;;;;;;9.84;79.18;102194.09;5053134;28;20028;-68
2021/10/16 06:24:43;;;;;;;12.70;4.63;;;;;;;9.98;78.53;102192.78;5054314;28;20028;-68
2021/10/16 06:27:08;;;;;;;18.63;4.82;;;;;;;9.92;78.35;102205.31;5053228;28;20040;-68
2021/10/16 06:29:33;;;;;;;21.85;4.70;;;;;;;9.90;78.48;102196.94;5052854;28;20033;-68
2021/10/16 06:31:58;;;;;;;16.75;4.88;;;;;;;9.98;78.28;102200.53;5054043;28;20025;-68
2021/10/16 06:34:24;;;;;;;14.73;4.00;;;;;;;9.77;78.65;102193.91;5053918;28;20468;-68
2021/10/16 06:36:50;;;;;;;13.93;3.58;;;;;;;9.81;78.82;102197.81;5052616;28;20032;-68
2021/10/16 06:39:15;;;;;;;16.38;4.20;;;;;;;9.79;78.61;102191.19;5053912;28;20510;-67
2021/10/16 06:41:40;;;;;;;16.38;3.95;;;;;;;9.61;79.03;102185.97;5053939;28;20021;-67
2021/10/16 06:44:06;;;;;;;14.63;4.32;;;;;;;9.69;80.27;102188.66;5053824;28;20033;-67
2021/10/16 06:50:00;;;;;;;14.27;3.97;;;;;;;9.73;78.76;102186.59;5054443;28;20044;-67
2021/10/16 06:52:25;;;;;;;16.05;3.97;;;;;;;9.95;78.35;102204.22;5055055;28;20021;-67
2021/10/16 06:54:55;;;;;;;19.90;4.30;;;;;;;9.74;78.09;102183.88;5053546;28;20029;-67
2021/10/16 06:57:20;;;;;;;13.75;3.72;;;;;;;9.73;79.29;102192.56;5053888;28;20056;-68
2021/10/16 06:59:45;;;;;;;17.88;4.15;;;;;;;9.94;78.71;102210.34;5054147;28;20075;-68
2021/10/16 07:02:11;;;;;;;17.05;3.75;;;;;;;9.97;78.81;102209.25;5053630;28;20021;-68
2021/10/16 07:04:36;;;;;;;10.43;3.67;;;;;;;10.02;78.59;102209.63;5053502;28;20021;-68
2021/10/16 07:07:01;;;;;;;12.60;3.50;;;;;;;10.10;77.78;102213.09;5054002;28;20348;-69
2021/10/16 07:09:26;;;;;;;16.88;3.92;;;;;;;10.15;77.14;102202.28;5053682;28;20021;-68
2021/10/16 07:11:52;;;;;;;13.45;4.07;;;;;;;10.15;77.18;102197.94;5052029;28;20032;-68
2021/10/16 07:14:17;;;;;;;22.30;3.60;;;;;;;10.01;77.24;102207.97;5053329;28;20431;-67
2021/10/16 07:16:43;;;;;;;16.10;3.60;;;;;;;9.85;77.85;102206.09;5053227;28;20016;-68
2021/10/16 07:19:09;;;;;;;14.43;3.58;;;;;;;9.97;77.80;102207.47;5051982;28;20025;-67
2021/10/16 07:21:35;;;;;;;11.63;3.80;;;;;;;9.90;77.29;102201.28;5053818;28;20079;-67
2021/10/16 07:24:00;;;;;;;16.95;3.60;;;;;;;9.93;77.31;102212.13;5053132;28;20121;-67
2021/10/16 07:26:27;;;;;;;18.40;3.90;;;;;;;9.93;78.04;102212.13;5053235;28;20035;-67
2021/10/16 07:28:52;;;;;;;18.25;4.10;;;;;;;10.05;78.06;102215.31;5053385;28;20025;-67
2021/10/16 07:31:18;;;;;;;14.50;3.67;;;;;;;10.11;77.29;102219.88;5051985;28;20098;-67
2021/10/16 07:33:43;;;;;;;20.15;3.95;;;;;;;10.10;77.11;102217.44;5053359;28;20025;-67
2021/10/16 07:36:08;;;;;;;18.83;3.95;;;;;;;10.18;77.21;102220.06;5051988;28;20036;-67
2021/10/16 07:38:34;;;;;;;13.90;3.63;;;;;;;10.19;77.06;102219.13;5052813;28;20457;-67
2021/10/16 07:41:00;;;;;;;10.75;3.35;;;;;;;10.35;76.63;102231.38;5053260;28;20029;-67
2021/10/16 07:43:25;;;;;;;11.38;3.55;;;;;;;10.35;77.69;102227.03;5053196;28;20021;-67
2021/10/16 07:45:50;;;;;;;11.70;3.50;;;;;;;10.49;77.09;102228.25;5053128;28;20027;-67
2021/10/16 07:48:15;;;;;;;9.98;3.10;;;;;;;10.45;76.96;102224.38;5051868;28;20112;-67
2021/10/16 07:50:41;;;;;;;14.15;3.45;;;;;;;10.55;76.21;102232.81;5053093;28;20028;-67
2021/10/16 07:53:06;;;;;;;17.83;3.85;;;;;;;10.57;76.92;102230.91;5052912;28;20128;-67
2021/10/16 07:55:32;;;;;;;18.80;3.67;;;;;;;10.63;76.07;102233.88;5053545;28;20013;-67
2021/10/16 07:57:57;;;;;;;16.38;3.50;;;;;;;10.79;74.78;102239.16;5051716;28;20075;-67
2021/10/16 08:00:23;;;;;;;14.60;3.47;;;;;;;10.86;74.45;102236.75;5052998;28;20040;-67
2021/10/16 08:02:48;;;;;;;14.45;3.55;;;;;;;10.84;74.86;102232.53;5053204;28;20060;-68
2021/10/16 08:05:14;;;;;;;15.25;3.47;;;;;;;10.79;74.25;102232.19;5053016;28;20029;-68
2021/10/16 08:07:43;;;;;;;14.18;3.20;;;;;;;10.87;74.21;102230.59;5053196;28;20104;-67
2021/10/16 08:10:12;;;;;;;13.98;3.35;;;;;;;10.88;73.78;102230.47;5053472;28;20057;-68
2021/10/16 08:12:38;;;;;;;14.15;3.13;;;;;;;10.88;73.79;102233.06;5053558;28;20083;-69
2021/10/16 08:15:05;;;;;;;19.15;3.67;;;;;;;10.93;73.54;102235.97;5053162;28;20017;-67
2021/10/16 08:17:31;;;;;;;12.75;3.08;;;;;;;13.00;67.36;102224.72;5051632;28;20449;-67
2021/10/16 08:19:56;;;;;;;14.23;3.35;;;;;;;12.66;66.38;102225.00;5052866;28;20033;-68
2021/10/16 08:22:21;;;;;;;12.50;3.30;;;;;;;14.91;61.10;102229.25;5052774;28;20464;-68
2021/10/16 08:24:48;;;;;;;18.27;3.72;;;;;;;12.78;66.67;102231.44;5051428;28;20029;-69
2021/10/16 08:27:13;;;;;;;16.63;3.50;;;;;;;12.27;69.42;102233.44;5052778;28;20029;-67
2021/10/16 08:29:39;;;;;;;18.08;3.38;;;;;;;11.69;70.36;102242.91;5052649;28;20036;-66
2021/10/16 08:32:05;;;;;;;15.00;3.58;;;;;;;11.55;71.45;102235.75;5051297;28;20400;-68
2021/10/16 08:34:30;;;;;;;18.27;3.25;;;;;;;11.52;71.96;102239.47;5052786;28;20021;-68
2021/10/16 08:36:55;;;;;;;17.67;4.30;;;;;;;11.48;71.93;102235.56;5052335;28;20060;-67
2021/10/16 08:39:23;;;;;;;14.63;3.55;;;;;;;11.47;71.62;102246.06;5052389;28;20432;-67
2021/10/16 08:41:49;;;;;;;15.38;3.30;;;;;;;11.56;71.77;102234.78;5052842;28;20035;-68
2021/10/16 08:44:14;;;;;;;20.40;3.47;;;;;;;11.58;72.66;102229.44;5052432;28;20029;-68
2021/10/16 08:46:41;;;;;;;21.13;3.60;;;;;;;11.71;71.71;102242.75;5052070;28;20132;-68
2021/10/16 08:49:10;;;;;;;13.88;3.22;;;;;;;11.58;71.27;102245.78;5051078;28;20047;-68
2021/10/16 08:51:36;;;;;;;12.77;3.30;;;;;;;11.54;71.72;102254.84;5055085;28;20468;-68
2021/10/16 08:54:01;;;;;;;17.25;3.25;;;;;;;11.56;72.41;102249.50;5055535;28;20053;-68
2021/10/16 08:56:26;;;;;;;15.07;3.05;;;;;;;11.61;72.34;102258.41;5056268;28;20017;-68
2021/10/16 08:58:52;;;;;;;16.65;3.10;;;;;;;11.60;71.80;102254.22;5055671;28;20153;-68
2021/10/16 09:01:17;;;;;;;19.33;3.75;;;;;;;11.62;71.79;102260.03;5054651;28;20111;-68
2021/10/16 09:03:47;;;;;;;12.68;3.08;;;;;;;11.67;73.92;102267.34;5055999;28;20025;-67
2021/10/16 09:06:26;;;;;;;16.67;3.33;;;;;;;11.56;72.53;102268.44;5055681;28;20496;-68
2021/10/16 09:09:03;;;;;;;15.75;3.60;;;;;;;11.70;72.07;102265.22;5054731;28;20475;-68
2021/10/16 09:11:44;;;;;;;13.50;3.40;;;;;;;11.71;72.80;102266.06;5055749;28;20306;-68
2021/10/16 09:14:16;;;;;;;16.92;3.30;;;;;;;11.70;73.10;102264.44;5054278;28;20052;-68
2021/10/16 09:16:46;;;;;;;20.23;3.70;;;;;;;11.71;73.97;102261.69;5055837;28;20024;-68
2021/10/16 09:19:16;;;;;;;14.90;3.28;;;;;;;11.62;73.23;102262.63;5055500;28;20484;-68
2021/10/16 09:21:46;;;;;;;14.75;4.18;;;;;;;11.65;73.49;102275.28;5055398;28;20029;-68
2021/10/16 09:24:18;;;;;;;17.95;3.65;;;;;;;11.64;71.83;102271.06;5055413;28;20040;-69
2021/10/16 09:26:47;;;;;;;16.10;3.08;;;;;;;11.77;72.73;102262.84;5055392;28;20064;-68
2021/10/16 09:29:14;;;;;;;14.63;3.40;;;;;;;11.94;71.81;102263.72;5054010;28;20071;-69
2021/10/16 09:31:45;;;;;;;13.70;3.25;;;;;;;11.90;71.49;102265.00;5053865;28;20112;-69
2021/10/16 09:34:11;;;;;;;22.05;4.10;;;;;;;11.81;72.30;102261.53;5055373;28;20083;-69
2021/10/16 09:36:38;;;;;;;12.40;3.28;;;;;;;12.08;72.41;102260.47;5054931;28;20025;-69
2021/10/16 09:39:06;;;;;;;18.25;3.55;;;;;;;12.18;71.71;102257.75;5053991;28;20562;-69
2021/10/16 09:41:39;;;;;;;18.02;3.55;;;;;;;12.24;69.69;102227.78;5055149;28;20375;-69
2021/10/16 09:44:17;;;;;;;15.68;3.50;;;;;;;12.38;70.04;102253.06;5055654;28;20045;-69
2021/10/16 09:47:02;;;;;;;20.30;4.10;;;;;;;12.59;69.73;102258.53;5055033;28;20122;-69
2021/10/16 09:49:30;;;;;;;16.42;3.70;;;;;;;12.62;70.09;102254.81;5054906;28;20108;-69
2021/10/16 09:51:55;;;;;;;16.83;3.50;;;;;;;12.73;69.73;102257.06;5054868;28;20037;-69
2021/10/16 09:54:22;;;;;;;16.27;3.60;;;;;;;12.48;68.73;102237.31;5054868;28;20052;-69
2021/10/16 09:56:47;;;;;;;14.02;3.60;;;;;;;12.76;68.35;102258.53;5055009;28;20029;-69
2021/10/16 09:59:17;;;;;;;13.85;3.50;;;;;;;12.82;67.71;102255.25;5054865;28;20155;-69
2021/10/16 10:01:44;;;;;;;17.83;3.70;;;;;;;12.81;68.10;102266.63;5054548;28;20036;-71
2021/10/16 10:04:10;;;;;;;19.77;3.80;;;;;;;12.53;69.04;102256.59;5054681;28;20021;-69
2021/10/16 10:06:37;;;;;;;21.98;3.47;;;;;;;12.58;69.31;102256.13;5054788;28;20092;-69
2021/10/16 10:09:03;;;;;;;16.33;3.65;;;;;;;12.63;68.65;102262.44;5054691;28;20032;-69
2021/10/16 10:11:32;;;;;;;11.90;3.33;;;;;;;12.76;67.10;102261.13;5054562;28;20021;-70
2021/10/16 10:13:57;;;;;;;12.50;3.58;;;;;;;12.84;66.86;102268.88;5054972;28;20334;-69
2021/10/16 10:16:23;;;;;;;16.73;3.45;;;;;;;12.80;66.52;102257.19;5054768;28;20013;-69
2021/10/16 10:19:00;;;;;;;15.90;3.83;;;;;;;12.60;67.15;102257.59;5054255;28;20028;-69
2021/10/16 10:21:34;;;;;;;13.63;3.35;;;;;;;12.64;67.63;102264.03;5054792;28;20103;-69
2021/10/16 10:24:00;;;;;;;;;;;;;;;12.67;67.13;102267.28;5055031;28;20108;-69
2021/10/16 10:26:32;;;;;;;17.23;3.45;;;;;;;12.65;67.08;102265.66;5052860;28;19956;-69
2021/10/16 10:29:09;;;;;;;13.23;3.42;;;;;;;12.50;67.61;102258.72;5053337;28;20376;-69
2021/10/16 10:32:01;;;;;;;16.05;3.80;;;;;;;12.66;67.13;102261.31;5054116;28;20028;-69
2021/10/16 10:34:38;;;;;;;11.95;3.13;;;;;;;12.67;66.06;102262.09;5053976;28;20494;-69
2021/10/16 10:37:13;;;;;;;13.65;3.42;;;;;;;12.62;66.74;102265.19;5055275;28;20017;-69
2021/10/16 10:39:45;;;;;;;13.93;3.50;;;;;;;12.70;67.41;102254.00;5055028;28;20100;-69
2021/10/16 10:42:13;;;;;;;13.82;3.28;;;;;;;12.54;66.80;102255.63;5054649;28;20029;-68
2021/10/16 10:44:44;;;;;;;19.25;4.07;;;;;;;12.81;66.56;102256.25;5053960;28;20024;-68
2021/10/16 10:47:30;;;;;;;17.92;3.60;;;;;;;12.83;66.49;102259.47;5052932;28;20071;-68
2021/10/16 10:50:13;;;;;;;9.27;3.08;;;;;;;12.98;66.39;102251.81;5054023;28;20108;-69
2021/10/16 10:52:56;;;;;;;15.93;3.30;;;;;;;12.79;66.77;102247.81;5053786;28;20024;-69
2021/10/16 10:55:21;;;;;;;;;;;;;;;13.02;66.58;102246.13;5054101;28;20017;-68
2021/10/16 10:57:53;;;;;;;15.77;3.63;;;;;;;13.11;66.24;102246.91;5053787;28;20283;-68
2021/10/16 11:00:32;;;;;;;14.65;3.60;;;;;;;13.35;65.27;102240.03;5054216;28;20460;-68
2021/10/16 11:02:57;;;;;;;16.52;3.35;;;;;;;13.24;64.57;102244.59;5052384;28;20120;-69
2021/10/16 11:05:33;;;;;;;13.48;3.20;;;;;;;13.28;65.30;102242.50;5053559;28;20115;-69
2021/10/16 11:08:12;;;;;;;12.20;2.85;;;;;;;13.40;63.95;102232.53;5052208;28;20494;-68
2021/10/16 11:10:38;;;;;;;16.17;3.25;;;;;;;13.80;64.70;102228.09;5053583;28;20436;-68
2021/10/16 11:13:15;;;;;;;13.85;3.45;;;;;;;13.81;62.46;102222.72;5051558;28;20136;-67
2021/10/16 11:15:41;;;;;;;14.07;3.20;;;;;;;13.93;62.87;102223.13;5053538;28;20029;-68
2021/10/16 11:18:16;;;;;;;18.98;3.50;;;;;;;13.77;63.22;102219.66;5053454;28;20388;-68
2021/10/16 11:20:42;;;;;;;18.10;3.22;;;;;;;13.60;63.03;102232.91;5053434;28;20082;-67
2021/10/16 11:23:17;;;;;;;15.68;2.97;;;;;;;13.44;62.37;102206.06;5052149;28;20025;-68